Oslo, MN

07:33 AM CST on Februarie 09, 2016 (GMT -0600)
Grafton Municipal | | Change Station
CLOSE
Current Station
Airport
Location: Grafton,
Elevation: 823 ft
Nearby Weather Stations

Elev 823 ft 48.40 °N, 97.37 °W | Updated -78 second ago

Toe getrek
Toe getrek
9 °F
Feels Like -4 °F
N
8
Wind Veranderlik Wind from Noord

Vandag
High -- | Low -- °F
--% Chance of Precip.
Yesterday
High -- | Low -- °F
Precip. -- in
Druk 30.32 in
Sigbaarheid 10.0 myle
Wolke Meestal Bewolk 4600 ft
Toe getrek 6000 ft
Wind afkoel -4 °F
Dou-punt 5 °F
Humiditeit 85%
Rainfall 0.00 in
Snow Depth Not available.
7:45 AM 5:40 PM
Nuwe Maan, 1% visible
METAR KGAF 091335Z AUTO 35007KT 10SM BKN046 OVC060 M13/M15 A3032 RMK AO2
Druk 30.32 in
Sigbaarheid 10.0 myle
Wolke Meestal Bewolk 4600 ft
Toe getrek 6000 ft
Wind afkoel -4 °F
Dou-punt 5 °F
Humiditeit 85%
Rainfall 0.00 in
Snow Depth Not available.
7:45 AM 5:40 PM
Nuwe Maan, 1% visible
METAR KGAF 091335Z AUTO 35007KT 10SM BKN046 OVC060 M13/M15 A3032 RMK AO2

10-Day Weather Forecast

Almanac

Astronomy

Feb. 09, 2016 Rise Set
Ware Tyd
Civil Twilight
Nautical Twilight
Astronomical Twilight
Maan
Length Of Visible Light
Length of Day
Tomorrow will be .
, % of the Moon is Illuminated

Today's Extremes

State Highs State Lows

Community

WunderPhotos

Upload Photos

1,891,591 photos uploaded!

WunderBlog® & News

Nearby

Air Quality

  Air Quality AQ Index Pollutant
Not available.

Snow Depth

Station Depth Elevation

Earthquake Activity

Stad Distance Mag. Time & Date
Minimum magnitude displayed is 2.5.

Coastal Water Temperatures

Plek Temperatuur

Stations

Nearby Weather Stations

Station Location Temp Wind afkoel Dou-punt Humiditeit Wind Precip. Elev Opdateer Type
                   

Watches & Warnings

There are currently no watches in effect.